createdAt,value
2022-10-28T00:02:50.081Z,8.10
2022-10-28T00:07:56.038Z,8.20
2022-10-28T00:13:02.326Z,7.80
2022-10-28T00:18:07.993Z,8.00
2022-10-28T00:23:14.275Z,8.10
2022-10-28T00:28:19.939Z,8.10
2022-10-28T00:33:25.642Z,8.20
2022-10-28T00:38:32.808Z,8.20
2022-10-28T00:43:43.577Z,8.20
2022-10-28T00:48:51.920Z,8.30
2022-10-28T00:53:59.169Z,8.30
2022-10-28T00:59:07.962Z,8.20
2022-10-28T01:04:14.448Z,7.70
2022-10-28T01:09:20.049Z,8.00
2022-10-28T01:14:35.327Z,8.00
2022-10-28T01:19:49.633Z,8.10
2022-10-28T01:25:14.905Z,7.60
2022-10-28T01:30:22.511Z,7.80
2022-10-28T01:40:41.730Z,8.00
2022-10-28T01:46:08.591Z,7.90
2022-10-28T01:51:17.449Z,7.90
2022-10-28T01:56:26.885Z,7.90
2022-10-28T02:01:33.977Z,7.60
2022-10-28T02:06:42.464Z,7.30
2022-10-28T02:12:07.246Z,7.60
2022-10-28T02:17:18.309Z,7.60
2022-10-28T02:22:35.355Z,7.60
2022-10-28T02:27:56.471Z,7.70
2022-10-28T02:33:05.120Z,7.80
2022-10-28T02:38:13.797Z,7.80
2022-10-28T02:43:21.181Z,7.70
2022-10-28T02:48:35.022Z,8.00
2022-10-28T02:53:43.800Z,7.90
2022-10-28T02:58:50.465Z,7.80
2022-10-28T03:03:55.605Z,8.10
2022-10-28T03:09:00.790Z,7.80
2022-10-28T03:14:07.896Z,7.60
2022-10-28T03:19:14.020Z,7.90
2022-10-28T03:24:19.480Z,7.90
2022-10-28T03:29:26.055Z,7.90
2022-10-28T03:34:31.636Z,8.00
2022-10-28T03:39:37.316Z,7.50
2022-10-28T03:44:42.262Z,7.50
2022-10-28T03:49:47.175Z,7.60
2022-10-28T03:54:52.162Z,7.40
2022-10-28T03:59:58.593Z,7.90
2022-10-28T04:05:03.903Z,8.00
2022-10-28T04:10:09.363Z,7.70
2022-10-28T04:15:14.702Z,7.60
2022-10-28T04:20:20.493Z,7.80
2022-10-28T04:25:27.900Z,7.80
2022-10-28T04:30:32.625Z,7.90
2022-10-28T04:35:39.438Z,7.80
2022-10-28T04:40:45.064Z,8.00
2022-10-28T04:45:49.938Z,8.00
2022-10-28T04:50:55.101Z,7.70
2022-10-28T04:56:00.669Z,7.80
2022-10-28T05:01:10.639Z,7.90
2022-10-28T05:06:16.543Z,8.00
2022-10-28T05:11:22.406Z,7.90
2022-10-28T05:16:27.322Z,8.00
2022-10-28T05:21:33.603Z,8.10
2022-10-28T05:26:39.067Z,8.30
2022-10-28T05:31:44.397Z,8.40
2022-10-28T05:36:51.424Z,8.50
2022-10-28T05:41:56.276Z,8.40
2022-10-28T05:47:01.830Z,8.70
2022-10-28T05:52:08.012Z,8.80
2022-10-28T06:11:59.842Z,9.10
2022-10-28T06:17:05.335Z,9.10
2022-10-28T06:22:11.711Z,9.00
2022-10-28T06:27:16.976Z,9.30
2022-10-28T06:32:22.727Z,9.50
2022-10-28T06:37:28.006Z,9.70
2022-10-28T06:42:33.643Z,9.90
2022-10-28T06:47:41.614Z,10.00
2022-10-28T06:52:47.721Z,10.10
2022-10-28T06:57:53.825Z,10.10
2022-10-28T07:03:00.155Z,10.10
2022-10-28T07:08:06.202Z,10.20
2022-10-28T07:13:11.524Z,10.30
2022-10-28T07:18:16.544Z,10.30
2022-10-28T07:23:22.554Z,10.50
2022-10-28T07:28:28.487Z,10.80
2022-10-28T07:33:34.139Z,11.10
2022-10-28T07:38:39.296Z,11.80
2022-10-28T07:43:44.654Z,12.30
2022-10-28T07:48:50.935Z,12.80
2022-10-28T07:53:56.086Z,13.20
2022-10-28T07:59:02.171Z,13.70
2022-10-28T08:04:07.306Z,14.00
2022-10-28T08:09:12.961Z,14.30
2022-10-28T08:14:18.923Z,14.80
2022-10-28T08:19:24.960Z,15.10
2022-10-28T08:24:30.432Z,15.50
2022-10-28T08:29:38.471Z,15.80
2022-10-28T08:34:43.937Z,16.00
2022-10-28T08:39:49.903Z,15.70
2022-10-28T08:45:28.270Z,15.30
2022-10-28T08:50:37.599Z,15.20
2022-10-28T08:55:46.986Z,15.50
2022-10-28T09:00:58.007Z,15.50
2022-10-28T09:06:06.319Z,16.10
2022-10-28T09:11:33.130Z,17.00
2022-10-28T09:16:45.199Z,17.20
2022-10-28T09:21:53.268Z,17.10
2022-10-28T09:27:11.428Z,17.90
2022-10-28T09:32:19.696Z,18.00
2022-10-28T09:37:37.508Z,18.30
2022-10-28T09:42:51.035Z,18.70
2022-10-28T09:48:28.386Z,18.60
2022-10-28T09:53:45.502Z,19.20
2022-10-28T09:58:53.189Z,19.40
2022-10-28T10:03:59.288Z,19.90
2022-10-28T10:09:05.347Z,20.30
2022-10-28T10:14:13.422Z,20.70
2022-10-28T10:19:19.151Z,20.70
2022-10-28T10:24:33.115Z,20.80
2022-10-28T10:29:40.707Z,21.10
2022-10-28T10:35:01.639Z,21.00
2022-10-28T10:40:30.726Z,21.50
2022-10-28T10:45:35.770Z,21.70
2022-10-28T10:50:43.948Z,21.90
2022-10-28T10:55:55.285Z,22.10
2022-10-28T11:01:04.082Z,22.20
2022-10-28T11:06:22.989Z,22.10
2022-10-28T11:11:23.552Z,22.20
2022-10-28T11:16:29.172Z,22.40
2022-10-28T11:22:06.372Z,22.40
2022-10-28T11:27:15.422Z,22.50
2022-10-28T11:32:41.117Z,22.70
2022-10-28T11:38:07.553Z,22.70
2022-10-28T11:43:28.041Z,22.70
2022-10-28T11:49:01.096Z,22.80
2022-10-28T11:54:38.099Z,22.80
2022-10-28T12:00:20.768Z,23.00
2022-10-28T12:05:34.673Z,23.00
2022-10-28T12:10:52.477Z,23.10
2022-10-28T12:16:26.389Z,23.10
2022-10-28T12:21:43.236Z,23.20
2022-10-28T12:26:51.738Z,23.30
2022-10-28T12:32:05.885Z,23.30
2022-10-28T12:37:14.112Z,23.40
2022-10-28T12:42:31.420Z,23.40
2022-10-28T12:47:48.325Z,23.40
2022-10-28T12:53:12.014Z,23.50
2022-10-28T12:58:26.536Z,23.50
2022-10-28T13:03:32.734Z,23.50
2022-10-28T13:09:02.498Z,23.50
2022-10-28T13:14:22.812Z,23.60
2022-10-28T13:19:43.123Z,23.40
2022-10-28T13:25:00.151Z,23.30
2022-10-28T13:30:08.272Z,23.10
2022-10-28T13:35:16.911Z,23.10
2022-10-28T13:40:34.456Z,23.00
2022-10-28T13:45:54.458Z,22.90
2022-10-28T13:51:15.691Z,22.20
2022-10-28T13:56:24.540Z,21.80
2022-10-28T14:02:07.985Z,21.60
2022-10-28T14:07:13.600Z,21.30
2022-10-28T14:12:21.861Z,21.30
2022-10-28T14:17:35.076Z,21.00
2022-10-28T14:22:40.426Z,20.70
2022-10-28T14:27:45.553Z,20.70
2022-10-28T14:33:01.149Z,20.80
2022-10-28T14:38:30.634Z,20.40
2022-10-28T14:43:45.020Z,19.70
2022-10-28T14:48:53.879Z,19.80
2022-10-28T14:54:01.435Z,19.60
2022-10-28T14:59:19.329Z,19.50
2022-10-28T15:04:25.078Z,19.10
2022-10-28T15:09:33.749Z,19.10
2022-10-28T15:14:42.291Z,18.90
2022-10-28T15:19:56.125Z,18.40
2022-10-28T15:25:17.542Z,18.30
2022-10-28T15:30:25.294Z,18.00
2022-10-28T15:35:38.268Z,17.80
2022-10-28T15:40:43.776Z,17.70
2022-10-28T15:45:49.541Z,17.50
2022-10-28T15:51:18.865Z,17.20
2022-10-28T15:56:28.504Z,16.80
2022-10-28T16:01:40.172Z,17.00
2022-10-28T16:06:47.477Z,16.30
2022-10-28T16:11:57.668Z,16.40
2022-10-28T16:17:15.574Z,16.20
2022-10-28T16:22:22.238Z,15.90
2022-10-28T16:27:30.493Z,15.50
2022-10-28T16:32:42.447Z,15.50
2022-10-28T16:37:54.631Z,15.30
2022-10-28T16:42:58.317Z,15.00
2022-10-28T16:48:03.380Z,14.70
2022-10-28T16:53:14.048Z,14.70
2022-10-28T16:58:23.071Z,14.50
2022-10-28T17:03:25.762Z,14.50
2022-10-28T17:09:00.853Z,14.30
2022-10-28T17:13:38.073Z,13.90
2022-10-28T17:18:45.062Z,13.90
2022-10-28T17:23:51.140Z,13.80
2022-10-28T17:28:57.593Z,14.20
2022-10-28T17:34:03.084Z,13.60
2022-10-28T17:39:13.634Z,14.10
2022-10-28T17:44:15.541Z,13.80
2022-10-28T17:49:22.891Z,13.50
2022-10-28T17:54:29.337Z,14.00
2022-10-28T17:59:34.491Z,14.00
2022-10-28T18:04:39.755Z,13.90
2022-10-28T18:09:45.002Z,13.80
2022-10-28T18:14:49.895Z,13.40
2022-10-28T18:19:57.880Z,13.30
2022-10-28T18:25:03.331Z,13.50
2022-10-28T18:30:09.286Z,13.40
2022-10-28T18:35:15.121Z,14.20
2022-10-28T18:40:20.122Z,14.20
2022-10-28T18:45:25.179Z,13.80
2022-10-28T18:50:32.480Z,14.00
2022-10-28T18:55:37.709Z,14.40
2022-10-28T19:00:43.584Z,14.60
2022-10-28T19:05:48.456Z,15.10
2022-10-28T19:10:58.429Z,15.20
2022-10-28T19:16:06.722Z,15.10
2022-10-28T19:21:14.852Z,15.50
2022-10-28T19:26:19.925Z,16.10
2022-10-28T19:31:29.314Z,15.20
2022-10-28T19:36:34.336Z,14.90
2022-10-28T19:41:40.307Z,14.80
2022-10-28T19:46:45.559Z,15.20
2022-10-28T19:51:50.970Z,14.60
2022-10-28T19:56:56.278Z,14.80
2022-10-28T20:02:02.280Z,14.40
2022-10-28T20:07:07.998Z,14.10
2022-10-28T20:12:12.973Z,15.00
2022-10-28T20:17:18.359Z,15.10
2022-10-28T20:22:24.318Z,15.10
2022-10-28T20:27:29.833Z,15.10
2022-10-28T20:32:36.559Z,15.70
2022-10-28T20:37:41.918Z,15.50
2022-10-28T20:42:47.050Z,15.20
2022-10-28T20:47:53.969Z,15.40
2022-10-28T20:52:59.430Z,15.50
2022-10-28T20:58:04.274Z,15.50
2022-10-28T21:03:12.019Z,15.40
2022-10-28T21:08:20.215Z,15.40
2022-10-28T21:13:25.167Z,15.50
2022-10-28T21:18:30.832Z,14.90
2022-10-28T21:23:36.395Z,15.20
2022-10-28T21:28:41.887Z,15.60
2022-10-28T21:33:51.072Z,15.10
2022-10-28T21:38:56.263Z,14.70
2022-10-28T21:44:02.625Z,14.60
2022-10-28T21:49:07.543Z,14.50
2022-10-28T21:54:12.442Z,14.50
2022-10-28T21:59:17.934Z,14.70
2022-10-28T22:04:24.638Z,14.70
2022-10-28T22:09:34.944Z,14.30
2022-10-28T22:14:37.364Z,14.20
2022-10-28T22:19:42.714Z,13.80
2022-10-28T22:24:48.178Z,13.90
2022-10-28T22:29:53.507Z,13.60
2022-10-28T22:34:58.387Z,13.70
2022-10-28T22:40:03.256Z,13.90
2022-10-28T22:45:09.799Z,13.80
2022-10-28T22:50:15.488Z,14.00
2022-10-28T22:55:20.742Z,13.80
2022-10-28T23:00:25.691Z,13.70
2022-10-28T23:05:30.947Z,13.40
2022-10-28T23:10:36.044Z,13.30
2022-10-28T23:15:41.768Z,13.10
2022-10-28T23:20:48.357Z,13.10
2022-10-28T23:25:57.400Z,13.00
2022-10-28T23:31:04.681Z,13.00
2022-10-28T23:36:12.319Z,13.30
2022-10-28T23:41:19.795Z,13.70
2022-10-28T23:46:25.143Z,13.00
2022-10-28T23:51:30.178Z,12.80
2022-10-28T23:56:36.004Z,12.70
